Flight Track Log - Related Links

Times and Time Zones

All times are in EDT time to prevent confusion due to time zone crossing. See the N775NC flight status page for this flight to view local times or setup timezone preferences in your user account.

Time Position Orientation Groundspeed Altitude Reporting Facility
EDT Latitude Longitude Course Direction KTS MPH feet Rate Location/Type
Mon 10:54:58 AM 33.6500 -84.4833 292° West 196 226 2,600  Level Atlanta TRACON
Mon 10:55:59 AM 33.6833 -84.5667 296° West 266 306 4,900 2,331 Climbing Atlanta TRACON
Mon 10:56:59 AM 33.6833 -84.6500 270° West 277 319 7,300 1,942 Climbing Atlanta TRACON
Mon 10:58:00 AM 33.6973 -84.9808 280° West  Level FlightAware Approximate
Mon 10:58:52 AM 33.6978 -84.8378 275° West 296 341 10,500  Level Atlanta Center
Mon 10:59:00 AM 33.7133 -85.0930 280° West  Level FlightAware Approximate
Mon 10:59:52 AM 33.7031 -84.9553 273° West 336 387 12,800  Level Atlanta Center
Mon 11:00:00 AM 33.7445 -85.2002 292° West  Level FlightAware Approximate
Mon 11:00:52 AM 33.7128 -85.0753 276° West 356 410 14,800  Level Atlanta Center
Mon 11:01:52 AM 33.7242 -85.1928 277° West 366 421 16,800 1,700 Climbing Atlanta Center
Mon 11:02:52 AM 33.7458 -85.3153 282° West 371 427 18,200 1,500 Climbing Atlanta Center
Mon 11:03:52 AM 33.7717 -85.4383 284° West 371 427 19,800 1,450 Climbing Atlanta Center
Mon 11:04:52 AM 33.8014 -85.5686 285° West 390 449 21,100 1,100 Climbing Atlanta Center
Mon 11:05:52 AM 33.8394 -85.6994 289° West 410 472 22,000 450 Climbing Atlanta Center
Mon 11:06:52 AM 33.8900 -85.8231 296° West 420 483 22,000 -857 Level Atlanta Center
Mon 11:08:54 AM 33.9828 -86.0964 292° West 448 516 19,400 -1,945 Descending Memphis Center
Mon 11:09:54 AM 34.0711 -86.1847 320° Northwest 415 478 16,100 -3,150 Descending Memphis Center
Mon 11:10:54 AM 34.1794 -86.2422 336° Northwest 403 464 13,100 -2,500 Descending Memphis Center
Mon 11:11:54 AM 34.2714 -86.3031 331° Northwest 403 464 11,100 -1,050 Descending Memphis Center
Mon 11:12:54 AM 34.3561 -86.3444 338° Northwest 375 432 11,000 -200 Descending Memphis Center
Mon 11:13:54 AM 34.4306 -86.3861 335° Northwest 329 379 10,700 -1,050 Descending Memphis Center
Mon 11:14:54 AM 34.4989 -86.4408 327° Northwest 297 342 8,900 -1,750 Descending Memphis Center
Mon 11:15:54 AM 34.5653 -86.4908 328° Northwest 286 329 7,200 -1,438 Descending Memphis Center
Mon 11:16:55 AM 34.6336 -86.5408 329° Northwest 286 329 6,000 -600 Descending Memphis Center
Mon 11:17:54 AM 34.6975 -86.5808 333° Northwest 281 323 6,000 -504 Level Memphis Center
Mon 11:18:54 AM 34.7569 -86.6236 329° Northwest 261 300 5,000 -800 Descending Memphis Center
Mon 11:19:54 AM 34.8167 -86.6614 333° Northwest 251 289 4,400 -900 Descending Memphis Center
Mon 11:20:54 AM 34.8308 -86.7217 286° West 203 234 3,200 -700 Descending Memphis Center
Mon 11:21:54 AM 34.7925 -86.7636 222° Southwest 151 174 3,000 -500 Descending Memphis Center
Mon 11:22:54 AM 34.7361 -86.7661 182° South 148 170 2,200 -800 Descending Memphis Center
Mon 11:23:54 AM 34.6903 -86.7681 182° South 162 186 1,400 -700 Descending Memphis Center
Mon 11:24:54 AM 34.6550 -86.7669 179° South 162 186 800 -600 Descending Memphis Center

Login

Don't have an account? Register now (free) for customized features, flight alerts, and more!